Flight Track Log - Related Links

Times and Time Zones

All times are in EDT time to prevent confusion due to time zone crossing. See the ASH2829 flight status page for this flight to view local times or setup timezone preferences in your user account.

Time Position Orientation Groundspeed Altitude Reporting Facility
EDT Latitude Longitude Course Direction KTS MPH feet Rate Location/Type
Mon 08:23:49 PM 33.4333 -111.9833 274° West 168 193 1,800  Level Phoenix TRACON
Mon 08:24:55 PM 33.4333 -111.9167 90° East 203 234 4,500 2,952 Climbing Phoenix TRACON
Mon 08:25:55 PM 33.4167 -111.8333 103° East 228 262 8,000 2,850 Climbing Phoenix TRACON
Mon 08:26:00 PM 33.4333 -112.3598 270° West  Level FlightAware Approximate
Mon 08:26:55 PM 33.3500 -111.8000 157° South 271 312 10,200  Level Phoenix TRACON
Mon 08:27:00 PM 33.4340 -112.4797 274° West  Level FlightAware Approximate
Mon 08:28:00 PM 33.4401 -112.5994 274° West  Level FlightAware Approximate
Mon 08:28:25 PM 33.3125 -111.9161 249° West 316 364 12,900  Level Albuquerque Center
Mon 08:29:25 PM 33.3283 -112.0306 279° West 344 396 15,100 2,213 Climbing Albuquerque Center
Mon 08:30:27 PM 33.3472 -112.1497 281° West 361 415 17,400 2,304 Climbing Albuquerque Center
Mon 08:31:30 PM 33.3667 -112.2689 281° West 362 417 19,900 2,323 Climbing Albuquerque Center
Mon 08:32:31 PM 33.3856 -112.3903 281° West 365 420 22,200 2,132 Climbing Albuquerque Center
Mon 08:33:31 PM 33.4047 -112.5108 281° West 367 422 24,200 1,935 Climbing Albuquerque Center
Mon 08:34:35 PM 33.4261 -112.6453 281° West 373 429 26,200 1,790 Climbing Albuquerque Center
Mon 08:35:35 PM 33.4456 -112.7703 281° West 377 434 27,900 1,475 Climbing Albuquerque Center
Mon 08:36:37 PM 33.4678 -112.8961 282° West 382 440 29,200 1,268 Climbing Albuquerque Center
Mon 08:37:38 PM 33.4922 -113.0236 283° West 391 450 30,500 1,306 Climbing Albuquerque Center
Mon 08:38:41 PM 33.5219 -113.1806 283° West 399 459 31,900 732 Climbing Albuquerque Center
Mon 08:39:41 PM 33.5486 -113.3147 283° West 409 471 32,000 49 Climbing Albuquerque Center
Mon 08:40:43 PM 33.5750 -113.4536 283° West 424 488 32,000  Level Albuquerque Center
Mon 08:41:47 PM 33.5997 -113.5939 282° West 427 491 32,000  Level Albuquerque Center
Mon 08:42:47 PM 33.6250 -113.7253 283° West 428 493 32,000  Level Albuquerque Center
Mon 08:43:48 PM 33.6461 -113.8964 278° West 428 493 32,000  Level Albuquerque Center
Mon 08:44:51 PM 33.6606 -114.0372 277° West 429 494 32,000  Level Albuquerque Center
Mon 08:45:52 PM 33.6756 -114.1797 277° West 429 494 32,000  Level Albuquerque Center
Mon 08:46:53 PM 33.6897 -114.3272 277° West 429 494 32,000  Level Albuquerque Center
Mon 08:47:56 PM 33.7017 -114.4700 276° West 429 494 32,000  Level Albuquerque Center
Mon 08:49:08 PM 33.7192 -114.6428 277° West 430 495 32,000  Level Los Angeles Center
Mon 08:50:10 PM 33.7328 -114.7858 277° West 431 496 32,000  Level Los Angeles Center
Mon 08:51:12 PM 33.7458 -114.9294 276° West 432 497 32,000  Level Los Angeles Center
Mon 08:52:14 PM 33.7606 -115.1006 276° West 432 497 32,000  Level Los Angeles Center
Mon 08:53:16 PM 33.7739 -115.2450 276° West 433 498 32,000  Level Los Angeles Center
Mon 08:54:18 PM 33.7861 -115.3889 276° West 434 499 32,000 -629 Level Los Angeles Center
Mon 08:55:20 PM 33.7975 -115.5314 276° West 434 499 30,700 -1,355 Descending Los Angeles Center
Mon 08:56:22 PM 33.8092 -115.6731 276° West 432 497 29,200 -1,597 Descending Los Angeles Center
Mon 08:57:24 PM 33.8239 -115.8422 276° West 429 494 27,400 -1,317 Descending Los Angeles Center
Mon 08:58:25 PM 33.8356 -115.9808 276° West 426 490 26,500 -927 Descending Los Angeles Center
Mon 08:59:27 PM 33.8461 -116.1183 275° West 421 484 25,500 -968 Descending Los Angeles Center
Mon 09:00:29 PM 33.8572 -116.2533 276° West 414 476 24,500 -1,113 Descending Los Angeles Center
Mon 09:01:31 PM 33.8681 -116.3881 276° West 410 472 23,200 -1,984 Descending Los Angeles Center
Mon 09:02:33 PM 33.8753 -116.5219 274° West 407 468 20,400 -2,952 Descending Los Angeles Center
Mon 09:03:35 PM 33.8825 -116.6800 273° West 401 461 17,100 -2,903 Descending Los Angeles Center
Mon 09:04:37 PM 33.8886 -116.8081 273° West 387 445 14,400 -2,419 Descending Los Angeles Center
Mon 09:05:39 PM 33.8622 -116.9281 255° West 381 438 12,100 -2,081 Descending Los Angeles Center
Mon 09:06:41 PM 33.8242 -117.0439 248° West 363 418 10,100 -1,024 Descending Los Angeles Center
Mon 09:07:42 PM 33.7833 -117.1500 245° Southwest 311 358 10,000 -545 Descending Southern California TRACON
Mon 09:08:42 PM 33.7833 -117.2500 270° West 291 335 9,000 -992 Descending Southern California TRACON
Mon 09:09:43 PM 33.7833 -117.3500 270° West 296 341 8,000 -496 Descending Southern California TRACON
Mon 09:10:43 PM 33.7833 -117.4333 270° West 262 302 8,000  Level Southern California TRACON
Mon 09:11:43 PM 33.7833 -117.5167 270° West 245 282 8,000 -250 Level Southern California TRACON
Mon 09:12:43 PM 33.7833 -117.6000 270° West 255 293 7,500 -762 Descending Southern California TRACON
Mon 09:13:49 PM 33.7500 -117.6833 244° Southwest 251 289 6,400 -1,095 Descending Southern California TRACON
Mon 09:14:49 PM 33.7333 -117.7667 256° West 241 277 5,200 -1,211 Descending Southern California TRACON
Mon 09:15:43 PM 33.7000 -117.8333 239° Southwest 237 273 4,100 -684 Descending Southern California TRACON
Mon 09:16:43 PM 33.6833 -117.9000 253° West 232 267 3,900 -400 Descending Southern California TRACON
Mon 09:17:43 PM 33.6833 -117.9833 270° West 246 283 3,300 -650 Descending Southern California TRACON
Mon 09:18:43 PM 33.7167 -118.0333 309° West 240 276 2,600 -947 Descending Southern California TRACON
Mon 09:19:37 PM 33.7667 -118.0833 320° Northwest 217 250 1,500 -1,050 Descending Southern California TRACON
Mon 09:20:43 PM 33.8000 -118.1333 309° West 141 162 500 -553 Descending Southern California TRACON
Mon 09:22:09 PM 33.8275 -118.1625 319° Northwest 158 182 100 -279 Descending Los Angeles Center

Login

Don't have an account? Register now (free) for customized features, flight alerts, and more!